Time;durP1;ratioP1;P1;durP2;ratioP2;P2;SDS_P1;SDS_P2;PMS_P1;PMS_P2;Temp;Humidity;BMP_temperature;BMP_pressure;BME280_temperature;BME280_humidity;BME280_pressure;Samples;Min_cycle;Max_cycle;Signal;HPM_P1;HPM_P2
2021/05/20 00:01:27;;;;;;;64.03;36.20;;;;;;;;;;4987686;28;38895;-78
2021/05/20 00:03:54;;;;;;;66.33;38.27;;;;;;;;;;5013431;28;39182;-79
2021/05/20 00:06:20;;;;;;;74.67;42.87;;;;;;;;;;4996608;28;36345;-79
2021/05/20 00:08:46;;;;;;;72.40;36.00;;;;;;;;;;4982939;28;39794;-78
2021/05/20 00:11:13;;;;;;;67.03;40.27;;;;;;;;;;4996946;28;39289;-78
2021/05/20 00:13:39;;;;;;;76.73;41.47;;;;;;;;;;4996180;28;37307;-79
2021/05/20 00:16:05;;;;;;;70.87;39.53;;;;;;;;;;5015518;28;37335;-78
2021/05/20 00:18:32;;;;;;;60.47;36.40;;;;;;;;;;5009960;28;38730;-79
2021/05/20 00:20:58;;;;;;;61.27;36.87;;;;;;;;;;4989203;28;38480;-78
2021/05/20 00:23:24;;;;;;;75.77;40.90;;;;;;;;;;4986768;28;39071;-78
2021/05/20 00:25:51;;;;;;;65.60;38.27;;;;;;;;;;4987085;28;35704;-77
2021/05/20 00:28:17;;;;;;;79.03;41.20;;;;;;;;;;5008466;28;38892;-78
2021/05/20 00:30:43;;;;;;;75.03;39.70;;;;;;;;;;4985433;28;39896;-78
2021/05/20 00:33:10;;;;;;;79.17;42.53;;;;;;;;;;5004862;28;38878;-78
2021/05/20 00:35:37;;;;;;;65.17;39.43;;;;;;;;;;5001941;28;37006;-78
2021/05/20 00:38:04;;;;;;;76.00;40.20;;;;;;;;;;5007094;28;39235;-78
2021/05/20 00:40:31;;;;;;;50.57;33.13;;;;;;;;;;5003072;28;38912;-78
2021/05/20 00:42:57;;;;;;;67.33;36.67;;;;;;;;;;4987269;28;38983;-77
2021/05/20 00:45:24;;;;;;;63.37;35.53;;;;;;;;;;5001127;28;37337;-77
2021/05/20 00:47:51;;;;;;;49.63;31.43;;;;;;;;;;5006966;28;39401;-78
2021/05/20 00:50:17;;;;;;;72.23;39.83;;;;;;;;;;4989542;28;38036;-77
2021/05/20 00:52:44;;;;;;;66.17;38.60;;;;;;;;;;4988710;28;37095;-77
2021/05/20 00:55:10;;;;;;;60.03;36.87;;;;;;;;;;5002104;28;38051;-78
2021/05/20 00:57:37;;;;;;;72.53;39.07;;;;;;;;;;5003855;28;37607;-78
2021/05/20 01:00:07;;;;;;;63.20;36.60;;;;;;;;;;4987753;28;38948;-78
2021/05/20 01:02:36;;;;;;;67.97;37.90;;;;;;;;;;4984878;28;47196;-78
2021/05/20 01:05:03;;;;;;;75.37;40.70;;;;;;;;;;5004367;28;35300;-76
2021/05/20 01:07:29;;;;;;;52.07;33.33;;;;;;;;;;5001353;28;41432;-78
2021/05/20 01:09:55;;;;;;;72.43;40.80;;;;;;;;;;4986568;28;39084;-77
2021/05/20 01:12:22;;;;;;;65.10;38.83;;;;;;;;;;4988685;28;38922;-79
2021/05/20 01:14:48;;;;;;;73.30;41.93;;;;;;;;;;4976254;28;36938;-77
2021/05/20 01:17:15;;;;;;;75.57;42.17;;;;;;;;;;4999320;28;40187;-78
2021/05/20 01:19:44;;;;;;;56.07;34.73;;;;;;;;;;5002614;28;38983;-77
2021/05/20 01:22:11;;;;;;;78.43;43.27;;;;;;;;;;4985517;28;37581;-77
2021/05/20 01:24:38;;;;;;;66.00;38.67;;;;;;;;;;5000393;28;37524;-78
2021/05/20 01:27:05;;;;;;;74.00;40.47;;;;;;;;;;4984527;28;40661;-78
2021/05/20 01:29:32;;;;;;;67.73;37.63;;;;;;;;;;5002278;28;38722;-78
2021/05/20 01:31:59;;;;;;;65.73;37.00;;;;;;;;;;4993155;28;38898;-77
2021/05/20 01:34:25;;;;;;;72.13;39.73;;;;;;;;;;4986485;28;37856;-77
2021/05/20 01:36:52;;;;;;;69.23;40.67;;;;;;;;;;5009926;28;38998;-78
2021/05/20 01:39:18;;;;;;;82.20;42.60;;;;;;;;;;4990420;28;39650;-77
2021/05/20 01:41:44;;;;;;;75.30;42.13;;;;;;;;;;5005238;28;38530;-78
2021/05/20 01:44:11;;;;;;;66.37;38.97;;;;;;;;;;4992091;28;35923;-78
2021/05/20 01:46:37;;;;;;;54.57;35.40;;;;;;;;;;5007815;28;37471;-78
2021/05/20 01:49:10;;;;;;;67.17;40.03;;;;;;;;;;5007082;28;37793;-77
2021/05/20 01:51:36;;;;;;;78.13;41.47;;;;;;;;;;5006298;28;38894;-77
2021/05/20 01:54:03;;;;;;;46.23;28.93;;;;;;;;;;4985339;28;37527;-77
2021/05/20 01:56:34;;;;;;;64.90;36.33;;;;;;;;;;4989273;28;40039;-77
2021/05/20 01:59:01;;;;;;;42.03;28.53;;;;;;;;;;4989627;28;37863;-77
2021/05/20 02:01:27;;;;;;;53.83;32.60;;;;;;;;;;4990722;28;38974;-78
2021/05/20 02:03:54;;;;;;;38.67;26.93;;;;;;;;;;4987259;28;36362;-77
2021/05/20 02:06:20;;;;;;;58.67;34.37;;;;;;;;;;4986881;28;37864;-77
2021/05/20 02:08:46;;;;;;;59.07;34.77;;;;;;;;;;5004458;28;39132;-77
2021/05/20 02:11:13;;;;;;;55.33;34.43;;;;;;;;;;4985637;28;37576;-77
2021/05/20 02:13:39;;;;;;;53.93;31.87;;;;;;;;;;4984112;28;37067;-76
2021/05/20 02:16:06;;;;;;;47.10;30.30;;;;;;;;;;4983790;28;39677;-77
2021/05/20 02:18:33;;;;;;;72.87;38.53;;;;;;;;;;4988317;28;40586;-77
2021/05/20 02:21:00;;;;;;;52.57;31.93;;;;;;;;;;4997603;28;39944;-78
2021/05/20 02:23:26;;;;;;;66.97;36.67;;;;;;;;;;4985008;28;39080;-77
2021/05/20 02:25:53;;;;;;;73.80;38.43;;;;;;;;;;4975909;28;40005;-77
2021/05/20 02:28:19;;;;;;;65.00;35.93;;;;;;;;;;4986853;28;43192;-77
2021/05/20 02:30:45;;;;;;;72.10;39.17;;;;;;;;;;5002275;28;39627;-78
2021/05/20 02:33:12;;;;;;;72.43;39.03;;;;;;;;;;4977481;28;36088;-77
2021/05/20 02:35:38;;;;;;;77.47;40.67;;;;;;;;;;4983731;28;37542;-77
2021/05/20 02:38:05;;;;;;;48.80;32.13;;;;;;;;;;4998869;28;39187;-78
2021/05/20 02:40:32;;;;;;;58.60;33.00;;;;;;;;;;4987752;28;38365;-78
2021/05/20 02:42:58;;;;;;;74.53;38.40;;;;;;;;;;4982947;28;35910;-78
2021/05/20 02:45:25;;;;;;;58.47;34.50;;;;;;;;;;4978059;28;35935;-78
2021/05/20 02:47:52;;;;;;;77.63;40.07;;;;;;;;;;5006734;28;38552;-77
2021/05/20 02:50:19;;;;;;;66.40;36.67;;;;;;;;;;4986607;28;39939;-77
2021/05/20 02:52:46;;;;;;;64.73;37.13;;;;;;;;;;4989700;28;38628;-77
2021/05/20 02:55:17;;;;;;;68.23;38.97;;;;;;;;;;4998576;28;39231;-78
2021/05/20 02:57:54;;;;;;;66.33;38.10;;;;;;;;;;4989109;28;39583;-77
2021/05/20 03:00:21;;;;;;;57.63;34.43;;;;;;;;;;4984063;28;39366;-78
2021/05/20 03:02:50;;;;;;;66.07;37.57;;;;;;;;;;5007647;28;36674;-78
2021/05/20 03:05:17;;;;;;;56.73;33.77;;;;;;;;;;4982179;28;37781;-77
2021/05/20 03:07:44;;;;;;;56.50;33.97;;;;;;;;;;5005210;28;39669;-78
2021/05/20 03:10:11;;;;;;;73.20;38.67;;;;;;;;;;5001888;28;38962;-78
2021/05/20 03:12:37;;;;;;;72.30;38.00;;;;;;;;;;4985472;28;37822;-78
2021/05/20 03:15:04;;;;;;;72.00;38.40;;;;;;;;;;5003420;28;39751;-77
2021/05/20 03:17:33;;;;;;;49.53;29.23;;;;;;;;;;5000295;28;49380;-77
2021/05/20 03:19:59;;;;;;;51.63;32.37;;;;;;;;;;4980686;28;37430;-78
2021/05/20 03:22:26;;;;;;;54.43;33.73;;;;;;;;;;5003824;28;36352;-77
2021/05/20 03:24:52;;;;;;;64.00;36.27;;;;;;;;;;5003279;28;36365;-78
2021/05/20 03:27:19;;;;;;;59.07;35.30;;;;;;;;;;4983495;28;37638;-77
2021/05/20 03:29:45;;;;;;;66.33;37.63;;;;;;;;;;4985665;28;39016;-78
2021/05/20 03:32:12;;;;;;;66.97;39.93;;;;;;;;;;5002102;28;36785;-77
2021/05/20 03:34:39;;;;;;;62.23;36.97;;;;;;;;;;4997323;28;38967;-78
2021/05/20 03:37:05;;;;;;;71.17;39.37;;;;;;;;;;4998227;28;39301;-78
2021/05/20 03:39:32;;;;;;;74.93;41.67;;;;;;;;;;4984364;28;37403;-78
2021/05/20 03:41:58;;;;;;;70.93;40.87;;;;;;;;;;5003537;28;37952;-77
2021/05/20 03:44:25;;;;;;;70.70;42.50;;;;;;;;;;5003827;28;38921;-77
2021/05/20 03:46:52;;;;;;;110.80;60.00;;;;;;;;;;4987573;28;39285;-78
2021/05/20 03:49:18;;;;;;;98.80;54.13;;;;;;;;;;4992286;28;38258;-78
2021/05/20 03:51:45;;;;;;;93.63;52.00;;;;;;;;;;5002799;28;37130;-80
2021/05/20 03:54:11;;;;;;;85.57;51.70;;;;;;;;;;4987793;28;38500;-78
2021/05/20 03:56:37;;;;;;;83.83;53.50;;;;;;;;;;5005810;28;39416;-78
2021/05/20 03:59:04;;;;;;;76.93;53.80;;;;;;;;;;5002736;28;38890;-78
2021/05/20 04:01:30;;;;;;;95.97;59.60;;;;;;;;;;5005788;28;39659;-78
2021/05/20 04:03:57;;;;;;;134.73;74.47;;;;;;;;;;4986489;28;38408;-78
2021/05/20 04:06:23;;;;;;;131.27;73.70;;;;;;;;;;4985508;28;37782;-78
2021/05/20 04:08:50;;;;;;;160.03;81.00;;;;;;;;;;5004124;28;38755;-78
2021/05/20 04:11:16;;;;;;;89.20;59.23;;;;;;;;;;5002362;28;36884;-77
2021/05/20 04:13:43;;;;;;;153.37;79.73;;;;;;;;;;4984861;28;37903;-78
2021/05/20 04:16:14;;;;;;;197.10;91.07;;;;;;;;;;5001338;28;39274;-77
2021/05/20 04:18:41;;;;;;;131.30;71.83;;;;;;;;;;4991660;28;37526;-78
2021/05/20 04:21:07;;;;;;;170.93;81.50;;;;;;;;;;5006804;28;38831;-77
2021/05/20 04:23:34;;;;;;;223.07;88.33;;;;;;;;;;4985684;28;37949;-78
2021/05/20 04:26:01;;;;;;;168.83;83.17;;;;;;;;;;4999189;28;37901;-77
2021/05/20 04:28:27;;;;;;;144.50;75.90;;;;;;;;;;5006180;28;48758;-77
2021/05/20 04:30:54;;;;;;;80.00;53.93;;;;;;;;;;4985509;28;39719;-77
2021/05/20 04:33:21;;;;;;;149.43;73.57;;;;;;;;;;4985984;28;38157;-77
2021/05/20 04:35:47;;;;;;;131.60;69.83;;;;;;;;;;5002346;28;38404;-77
2021/05/20 04:38:13;;;;;;;167.03;75.73;;;;;;;;;;5001419;28;36611;-77
2021/05/20 04:40:40;;;;;;;144.87;70.17;;;;;;;;;;5002482;28;36757;-78
2021/05/20 04:43:07;;;;;;;107.43;62.07;;;;;;;;;;4981937;28;39608;-77
2021/05/20 04:45:34;;;;;;;128.13;66.07;;;;;;;;;;4985958;28;38948;-77
2021/05/20 04:48:01;;;;;;;124.60;65.30;;;;;;;;;;4993541;28;39067;-77
2021/05/20 04:50:28;;;;;;;125.23;65.67;;;;;;;;;;5003230;28;47609;-77
2021/05/20 04:52:54;;;;;;;115.10;60.80;;;;;;;;;;5004493;28;36844;-77
2021/05/20 04:55:20;;;;;;;143.77;68.47;;;;;;;;;;5001252;28;40420;-77
2021/05/20 04:57:47;;;;;;;139.83;68.33;;;;;;;;;;5007566;28;39175;-77
2021/05/20 05:00:14;;;;;;;158.10;72.20;;;;;;;;;;5004118;28;37078;-77
2021/05/20 05:02:40;;;;;;;146.23;72.43;;;;;;;;;;4979226;28;38194;-78
2021/05/20 05:05:08;;;;;;;122.13;69.27;;;;;;;;;;5003634;28;38833;-77
2021/05/20 05:07:34;;;;;;;191.90;90.73;;;;;;;;;;4985125;28;38665;-77
2021/05/20 05:10:01;;;;;;;187.23;91.63;;;;;;;;;;4985563;28;36543;-78
2021/05/20 05:12:27;;;;;;;162.60;84.43;;;;;;;;;;4999209;28;39004;-78
2021/05/20 05:14:54;;;;;;;132.47;81.60;;;;;;;;;;4982567;28;37573;-78
2021/05/20 05:17:20;;;;;;;236.17;109.03;;;;;;;;;;4981290;28;37759;-78
2021/05/20 05:19:47;;;;;;;91.10;65.93;;;;;;;;;;5006677;28;36779;-77
2021/05/20 05:22:13;;;;;;;99.57;69.90;;;;;;;;;;5001985;28;39631;-78
2021/05/20 05:24:41;;;;;;;120.87;80.90;;;;;;;;;;4998088;28;38079;-77
2021/05/20 05:27:07;;;;;;;111.30;77.07;;;;;;;;;;4987529;28;38616;-78
2021/05/20 05:29:35;;;;;;;89.28;67.35;;;;;;;;;;4982706;28;37550;-78
2021/05/20 05:32:02;;;;;;;92.37;69.37;;;;;;;;;;4997463;28;38495;-76
2021/05/20 05:34:28;;;;;;;92.35;70.10;;;;;;;;;;4983601;28;38012;-78
2021/05/20 05:36:55;;;;;;;83.68;64.28;;;;;;;;;;4983449;28;38924;-77
2021/05/20 05:39:21;;;;;;;89.38;69.25;;;;;;;;;;4998543;28;38036;-78
2021/05/20 05:41:47;;;;;;;91.05;68.10;;;;;;;;;;5003421;28;38720;-78
2021/05/20 05:44:14;;;;;;;77.03;58.78;;;;;;;;;;5003192;28;39785;-79
2021/05/20 05:46:42;;;;;;;72.40;54.70;;;;;;;;;;4989722;28;38881;-77
2021/05/20 05:49:22;;;;;;;68.22;53.20;;;;;;;;;;4981082;28;36099;-78
2021/05/20 05:51:52;;;;;;;63.10;52.65;;;;;;;;;;4997490;28;39111;-78
2021/05/20 05:54:18;;;;;;;64.78;52.05;;;;;;;;;;4980472;28;40529;-77
2021/05/20 05:56:45;;;;;;;61.88;49.60;;;;;;;;;;4985549;28;38713;-78
2021/05/20 05:59:11;;;;;;;62.17;48.63;;;;;;;;;;4985815;28;37768;-79
2021/05/20 06:01:39;;;;;;;58.53;47.05;;;;;;;;;;4989399;28;37610;-78
2021/05/20 06:04:08;;;;;;;55.03;45.08;;;;;;;;;;5007620;28;38581;-80
2021/05/20 06:06:34;;;;;;;48.65;41.00;;;;;;;;;;4988023;28;38849;-78
2021/05/20 06:09:01;;;;;;;51.78;45.08;;;;;;;;;;4991436;28;37763;-79
2021/05/20 06:11:27;;;;;;;51.92;40.90;;;;;;;;;;4986290;28;38910;-78
2021/05/20 06:13:55;;;;;;;49.22;41.50;;;;;;;;;;4999281;28;39172;-78
2021/05/20 06:16:21;;;;;;;48.35;42.10;;;;;;;;;;4989204;28;39162;-77
2021/05/20 06:18:47;;;;;;;50.70;41.58;;;;;;;;;;4985020;28;37639;-77
2021/05/20 06:21:14;;;;;;;51.28;42.00;;;;;;;;;;4994510;28;39611;-79
2021/05/20 06:23:40;;;;;;;48.55;40.20;;;;;;;;;;4993807;28;40486;-77
2021/05/20 06:26:07;;;;;;;52.15;42.47;;;;;;;;;;5010136;28;39394;-77
2021/05/20 06:28:35;;;;;;;48.85;40.92;;;;;;;;;;4991016;28;37776;-77
2021/05/20 06:31:01;;;;;;;47.35;40.75;;;;;;;;;;5009854;28;38656;-77
2021/05/20 06:33:28;;;;;;;45.38;38.20;;;;;;;;;;5012842;28;48827;-79
2021/05/20 06:35:54;;;;;;;46.08;39.47;;;;;;;;;;4992189;28;40277;-79
2021/05/20 06:38:21;;;;;;;43.13;38.45;;;;;;;;;;4991603;28;38649;-79
2021/05/20 06:40:47;;;;;;;38.15;30.50;;;;;;;;;;5009844;28;38912;-79
2021/05/20 06:43:13;;;;;;;35.83;28.75;;;;;;;;;;5007011;28;39701;-79
2021/05/20 06:45:40;;;;;;;39.42;33.47;;;;;;;;;;4973050;28;38812;-77
2021/05/20 06:48:06;;;;;;;34.80;30.80;;;;;;;;;;4988835;28;38122;-77
2021/05/20 06:50:33;;;;;;;41.83;34.22;;;;;;;;;;4993107;28;39842;-77
2021/05/20 06:52:59;;;;;;;37.90;33.80;;;;;;;;;;5000638;28;40731;-77
2021/05/20 06:55:26;;;;;;;38.10;30.73;;;;;;;;;;4992780;28;37407;-77
2021/05/20 07:00:31;;;;;;;30.17;24.80;;;;;;;;;;4989653;28;49592;-78
2021/05/20 07:02:57;;;;;;;32.75;24.10;;;;;;;;;;4991582;28;37904;-77
2021/05/20 07:05:24;;;;;;;27.73;22.65;;;;;;;;;;5010792;28;39002;-77
2021/05/20 07:07:51;;;;;;;27.73;20.58;;;;;;;;;;5010886;28;37341;-77
2021/05/20 07:10:17;;;;;;;25.65;18.58;;;;;;;;;;4989842;28;39318;-78
2021/05/20 07:12:44;;;;;;;24.50;20.38;;;;;;;;;;5008001;28;38896;-78
2021/05/20 07:15:11;;;;;;;26.48;20.92;;;;;;;;;;4987625;28;39245;-77
2021/05/20 07:17:37;;;;;;;26.23;21.27;;;;;;;;;;5008168;28;36515;-78
2021/05/20 07:20:07;;;;;;;30.00;23.73;;;;;;;;;;4989939;28;40363;-77
2021/05/20 07:22:34;;;;;;;29.95;23.95;;;;;;;;;;5006762;28;49180;-78
2021/05/20 07:25:03;;;;;;;28.17;22.88;;;;;;;;;;5008601;28;39280;-77
2021/05/20 07:27:30;;;;;;;31.40;25.17;;;;;;;;;;5005376;28;47218;-78
2021/05/20 07:29:56;;;;;;;25.98;22.30;;;;;;;;;;5004230;28;39797;-78
2021/05/20 07:32:23;;;;;;;25.45;19.98;;;;;;;;;;4990406;28;38164;-78
2021/05/20 07:34:49;;;;;;;22.05;19.27;;;;;;;;;;5009141;28;38674;-78
2021/05/20 07:37:16;;;;;;;23.85;18.80;;;;;;;;;;5006094;28;37228;-78
2021/05/20 07:39:42;;;;;;;25.33;18.08;;;;;;;;;;4990384;28;39384;-77
2021/05/20 07:42:08;;;;;;;20.58;17.35;;;;;;;;;;5006966;28;39883;-78
2021/05/20 07:44:36;;;;;;;19.13;14.65;;;;;;;;;;5007349;28;38569;-78
2021/05/20 07:47:03;;;;;;;15.00;13.23;;;;;;;;;;4992428;28;37249;-78
2021/05/20 07:49:31;;;;;;;14.32;12.73;;;;;;;;;;4975685;28;40261;-76
2021/05/20 07:51:57;;;;;;;15.38;13.77;;;;;;;;;;4985993;28;38245;-77
2021/05/20 07:54:24;;;;;;;15.25;13.65;;;;;;;;;;4991893;28;38876;-77
2021/05/20 07:56:50;;;;;;;14.07;12.68;;;;;;;;;;4975820;28;36681;-77
2021/05/20 07:59:17;;;;;;;15.73;13.35;;;;;;;;;;5001118;28;39310;-78
2021/05/20 08:02:07;;;;;;;15.98;13.57;;;;;;;;;;4976263;28;37938;-78
2021/05/20 08:04:34;;;;;;;15.77;14.10;;;;;;;;;;4971593;28;47974;-77
2021/05/20 08:07:52;;;;;;;21.50;17.50;;;;;;;;;;4970288;28;36495;-78
2021/05/20 08:09:59;;;;;;;21.77;17.75;;;;;;;;;;4973784;28;49215;-78
2021/05/20 08:12:26;;;;;;;19.40;16.17;;;;;;;;;;4979167;28;38537;-78
2021/05/20 08:14:53;;;;;;;15.88;13.90;;;;;;;;;;4986674;28;38497;-77
2021/05/20 08:17:20;;;;;;;16.20;14.45;;;;;;;;;;4985013;28;35864;-78
2021/05/20 08:19:46;;;;;;;18.88;16.83;;;;;;;;;;5003970;28;39852;-78
2021/05/20 08:22:13;;;;;;;19.55;17.45;;;;;;;;;;4989398;28;38898;-78
2021/05/20 08:24:39;;;;;;;21.92;17.92;;;;;;;;;;4988549;28;38829;-78
2021/05/20 08:27:10;;;;;;;20.77;17.00;;;;;;;;;;4988461;28;37618;-78
2021/05/20 08:29:37;;;;;;;19.30;15.88;;;;;;;;;;5005851;28;39664;-78
2021/05/20 08:32:04;;;;;;;21.50;16.40;;;;;;;;;;4990391;28;39373;-78
2021/05/20 08:34:30;;;;;;;20.75;17.08;;;;;;;;;;4985541;28;38714;-78
2021/05/20 08:36:57;;;;;;;22.35;16.20;;;;;;;;;;4988874;28;37980;-78
2021/05/20 08:39:23;;;;;;;22.17;17.45;;;;;;;;;;4990360;28;37652;-78
2021/05/20 08:41:50;;;;;;;20.55;17.35;;;;;;;;;;5008398;28;38720;-78
2021/05/20 08:44:17;;;;;;;19.73;17.63;;;;;;;;;;4980116;28;38831;-78
2021/05/20 08:46:44;;;;;;;17.52;15.63;;;;;;;;;;5007767;28;37114;-78
2021/05/20 08:49:14;;;;;;;21.27;17.15;;;;;;;;;;4985764;28;37584;-77
2021/05/20 08:51:41;;;;;;;22.30;17.33;;;;;;;;;;4996003;28;39992;-77
2021/05/20 08:54:08;;;;;;;21.42;18.17;;;;;;;;;;4989754;28;37425;-77
2021/05/20 08:56:34;;;;;;;22.67;18.67;;;;;;;;;;5006767;28;37862;-78
2021/05/20 08:59:01;;;;;;;23.05;18.33;;;;;;;;;;5008332;28;39780;-78
2021/05/20 09:01:48;;;;;;;25.73;19.00;;;;;;;;;;4988184;28;39122;-78
2021/05/20 09:04:15;;;;;;;24.02;18.05;;;;;;;;;;4990595;28;38671;-78
2021/05/20 09:06:59;;;;;;;21.38;16.98;;;;;;;;;;5006930;28;37188;-78
2021/05/20 09:09:33;;;;;;;17.88;15.52;;;;;;;;;;5006306;28;38957;-77
2021/05/20 09:12:00;;;;;;;16.70;14.70;;;;;;;;;;5007281;28;39941;-78
2021/05/20 09:14:35;;;;;;;15.70;13.00;;;;;;;;;;5006967;28;39345;-77
2021/05/20 09:17:12;;;;;;;11.52;10.05;;;;;;;;;;4987602;28;37012;-77
2021/05/20 09:19:39;;;;;;;13.00;7.50;;;;;;;;;;5007881;28;38788;-79
2021/05/20 09:22:09;;;;;;;10.65;6.70;;;;;;;;;;4988702;28;39360;-77
2021/05/20 09:24:45;;;;;;;6.57;5.60;;;;;;;;;;4986414;28;38348;-78
2021/05/20 09:27:22;;;;;;;7.55;6.15;;;;;;;;;;4972351;28;36231;-78
2021/05/20 09:30:07;;;;;;;6.50;5.78;;;;;;;;;;4995824;28;36759;-78
2021/05/20 09:32:35;;;;;;;8.55;7.65;;;;;;;;;;5007697;28;49085;-78
2021/05/20 09:35:01;;;;;;;9.27;7.20;;;;;;;;;;4989545;28;39430;-78
2021/05/20 09:37:28;;;;;;;7.90;5.65;;;;;;;;;;5004432;28;48801;-78
2021/05/20 09:40:01;;;;;;;6.15;5.55;;;;;;;;;;4987940;28;39693;-78
2021/05/20 09:42:31;;;;;;;6.63;4.95;;;;;;;;;;5003904;28;47127;-78
2021/05/20 09:45:11;;;;;;;6.43;5.75;;;;;;;;;;5005719;28;38845;-78
2021/05/20 09:47:38;;;;;;;7.57;5.75;;;;;;;;;;4993978;28;49536;-78
2021/05/20 09:50:15;;;;;;;6.85;5.13;;;;;;;;;;5008696;28;39056;-79
2021/05/20 09:52:42;;;;;;;6.20;5.03;;;;;;;;;;5010304;28;49177;-78
2021/05/20 09:55:27;;;;;;;5.10;3.95;;;;;;;;;;4975125;28;37687;-79
2021/05/20 09:57:55;;;;;;;5.78;3.90;;;;;;;;;;4976122;28;36055;-79
2021/05/20 10:00:25;;;;;;;4.97;4.32;;;;;;;;;;5003921;28;39716;-79
2021/05/20 10:03:07;;;;;;;4.25;3.85;;;;;;;;;;5008176;28;38558;-79
2021/05/20 10:05:33;;;;;;;7.93;4.25;;;;;;;;;;4993707;28;47454;-78
2021/05/20 10:08:01;;;;;;;7.88;5.13;;;;;;;;;;5009441;28;36932;-78
2021/05/20 10:10:28;;;;;;;4.93;3.92;;;;;;;;;;5000530;28;49007;-78
2021/05/20 10:12:54;;;;;;;4.70;4.22;;;;;;;;;;4976135;28;38131;-79
2021/05/20 10:15:22;;;;;;;4.97;4.47;;;;;;;;;;5007698;28;39571;-78
2021/05/20 10:17:48;;;;;;;5.95;5.10;;;;;;;;;;5012244;28;37865;-78
2021/05/20 10:20:16;;;;;;;4.95;4.13;;;;;;;;;;4998476;28;38872;-78
2021/05/20 10:22:43;;;;;;;5.72;3.95;;;;;;;;;;5011120;28;39525;-78
2021/05/20 10:25:10;;;;;;;5.53;4.32;;;;;;;;;;5010795;28;40020;-78
2021/05/20 10:27:37;;;;;;;6.85;4.20;;;;;;;;;;5010739;28;37521;-78
2021/05/20 10:30:05;;;;;;;8.60;4.40;;;;;;;;;;5011339;28;39773;-78
2021/05/20 10:32:31;;;;;;;8.88;6.40;;;;;;;;;;4993332;28;37989;-77
2021/05/20 10:35:02;;;;;;;6.43;5.15;;;;;;;;;;5010190;28;39088;-78
2021/05/20 10:37:47;;;;;;;6.60;5.78;;;;;;;;;;5011924;28;47361;-78
2021/05/20 10:40:26;;;;;;;6.32;5.32;;;;;;;;;;5013329;28;38985;-78
2021/05/20 10:43:06;;;;;;;7.35;5.15;;;;;;;;;;5013415;28;39999;-77
2021/05/20 10:45:33;;;;;;;5.45;4.88;;;;;;;;;;4993756;28;46992;-78
2021/05/20 10:48:02;;;;;;;11.82;5.03;;;;;;;;;;4987577;28;35644;-78
2021/05/20 10:50:48;;;;;;;6.72;4.78;;;;;;;;;;4989525;28;47819;-77
2021/05/20 10:53:34;;;;;;;6.13;5.47;;;;;;;;;;4998158;28;39586;-77
2021/05/20 10:56:00;;;;;;;7.20;5.40;;;;;;;;;;4993106;28;40649;-77
2021/05/20 10:58:29;;;;;;;7.80;4.72;;;;;;;;;;4991092;28;46493;-77
2021/05/20 11:00:55;;;;;;;7.10;5.20;;;;;;;;;;5006110;28;38916;-78
2021/05/20 11:03:42;;;;;;;8.07;5.65;;;;;;;;;;4990247;28;37316;-78
2021/05/20 11:06:08;;;;;;;8.15;6.10;;;;;;;;;;5009845;28;38752;-78
2021/05/20 11:08:37;;;;;;;10.00;6.68;;;;;;;;;;5014680;28;36735;-79
2021/05/20 11:11:04;;;;;;;9.85;7.53;;;;;;;;;;4994677;28;39337;-79
2021/05/20 11:13:37;;;;;;;11.85;7.63;;;;;;;;;;4997380;28;40728;-79
2021/05/20 11:16:23;;;;;;;12.02;7.63;;;;;;;;;;5011579;28;38555;-78
2021/05/20 11:18:51;;;;;;;16.60;9.77;;;;;;;;;;5005136;28;35475;-79
2021/05/20 11:21:17;;;;;;;15.45;9.38;;;;;;;;;;4987127;28;39239;-77
2021/05/20 11:23:44;;;;;;;9.77;7.03;;;;;;;;;;4986630;28;39208;-77
2021/05/20 11:26:12;;;;;;;12.30;7.22;;;;;;;;;;4982468;28;40233;-78
2021/05/20 11:28:42;;;;;;;14.55;8.70;;;;;;;;;;4990066;28;35629;-77
2021/05/20 11:31:09;;;;;;;14.18;8.93;;;;;;;;;;5003877;28;40655;-77
2021/05/20 11:33:43;;;;;;;9.60;7.40;;;;;;;;;;4990172;28;39610;-78
2021/05/20 11:36:12;;;;;;;12.25;9.30;;;;;;;;;;4986255;28;39396;-78
2021/05/20 11:38:51;;;;;;;9.05;8.05;;;;;;;;;;5004886;28;36581;-78
2021/05/20 11:41:17;;;;;;;9.43;7.43;;;;;;;;;;5000258;28;38563;-79
2021/05/20 11:43:44;;;;;;;13.95;7.00;;;;;;;;;;5005220;28;41999;-78
2021/05/20 11:46:20;;;;;;;9.15;5.90;;;;;;;;;;5005388;28;38464;-78
2021/05/20 11:49:20;;;;;;;7.68;5.57;;;;;;;;;;5005099;28;36971;-77
2021/05/20 11:51:47;;;;;;;8.43;6.22;;;;;;;;;;4960601;28;48330;-77
2021/05/20 11:54:15;;;;;;;6.15;5.32;;;;;;;;;;4996344;28;38774;-77
2021/05/20 11:56:44;;;;;;;7.00;5.32;;;;;;;;;;5003430;28;39987;-81
2021/05/20 11:59:10;;;;;;;8.52;5.40;;;;;;;;;;4980676;28;36095;-78
2021/05/20 12:01:37;;;;;;;6.65;5.13;;;;;;;;;;5000375;28;38909;-78
2021/05/20 12:04:04;;;;;;;4.63;4.13;;;;;;;;;;4987223;28;40597;-77
2021/05/20 12:06:31;;;;;;;5.97;4.20;;;;;;;;;;4987366;28;38970;-78
2021/05/20 12:09:07;;;;;;;4.18;3.80;;;;;;;;;;4999744;28;37192;-77
2021/05/20 12:11:34;;;;;;;4.07;3.67;;;;;;;;;;4987254;28;47259;-78
2021/05/20 12:14:00;;;;;;;6.13;3.92;;;;;;;;;;5006737;28;39119;-78
2021/05/20 12:16:31;;;;;;;5.20;4.50;;;;;;;;;;5004038;28;41025;-78
2021/05/20 12:18:59;;;;;;;4.38;4.07;;;;;;;;;;5000593;28;37209;-78
2021/05/20 12:21:26;;;;;;;5.32;4.00;;;;;;;;;;5005905;28;38614;-78
2021/05/20 12:23:53;;;;;;;4.07;3.55;;;;;;;;;;4999120;28;39428;-78
2021/05/20 12:26:30;;;;;;;5.07;4.25;;;;;;;;;;5002108;28;39584;-77
2021/05/20 12:28:57;;;;;;;4.38;3.97;;;;;;;;;;4982378;28;37264;-77
2021/05/20 12:31:23;;;;;;;6.60;4.20;;;;;;;;;;4995429;28;39834;-78
2021/05/20 12:33:50;;;;;;;6.72;5.03;;;;;;;;;;4978153;28;39693;-78
2021/05/20 12:36:29;;;;;;;8.43;5.55;;;;;;;;;;4993712;28;39255;-78
2021/05/20 12:38:56;;;;;;;7.90;5.63;;;;;;;;;;4984163;28;37787;-77
2021/05/20 12:41:33;;;;;;;8.43;5.53;;;;;;;;;;4993237;28;38651;-78
2021/05/20 12:44:11;;;;;;;9.00;5.40;;;;;;;;;;4971167;28;40498;-77
2021/05/20 12:46:38;;;;;;;7.32;5.35;;;;;;;;;;4978688;28;47263;-79
2021/05/20 12:49:04;;;;;;;10.73;5.40;;;;;;;;;;5001321;28;38670;-79
2021/05/20 12:51:31;;;;;;;9.45;5.38;;;;;;;;;;4994938;28;39184;-78
2021/05/20 12:53:58;;;;;;;9.13;5.47;;;;;;;;;;5002086;28;38660;-77
2021/05/20 12:56:26;;;;;;;12.75;5.70;;;;;;;;;;4975084;28;39343;-79
2021/05/20 12:59:08;;;;;;;12.30;6.45;;;;;;;;;;4994076;28;38012;-79
2021/05/20 13:01:43;;;;;;;8.90;6.60;;;;;;;;;;4981620;28;47584;-78
2021/05/20 13:04:16;;;;;;;10.77;6.28;;;;;;;;;;5003110;28;38999;-79
2021/05/20 13:06:42;;;;;;;8.13;5.45;;;;;;;;;;5005646;28;39157;-78
2021/05/20 13:09:09;;;;;;;7.32;5.35;;;;;;;;;;4988314;28;37342;-78
2021/05/20 13:11:42;;;;;;;5.10;4.07;;;;;;;;;;4980783;28;39576;-78
2021/05/20 13:14:23;;;;;;;6.65;4.10;;;;;;;;;;4979071;28;39456;-78
2021/05/20 13:22:21;;;;;;;4.82;3.25;;;;;;;;;;4996885;28;40318;-78
2021/05/20 13:24:51;;;;;;;5.15;3.80;;;;;;;;;;4993560;28;48284;-78
2021/05/20 13:27:19;;;;;;;5.10;4.07;;;;;;;;;;4996472;28;38721;-78
2021/05/20 13:29:58;;;;;;;6.55;3.78;;;;;;;;;;4999043;28;37206;-78
2021/05/20 13:32:35;;;;;;;5.10;3.85;;;;;;;;;;4981586;28;38025;-78
2021/05/20 13:35:02;;;;;;;3.95;3.55;;;;;;;;;;4980902;28;38720;-78
2021/05/20 13:37:28;;;;;;;3.75;3.35;;;;;;;;;;4994750;28;48387;-78
2021/05/20 13:39:55;;;;;;;5.70;3.75;;;;;;;;;;4984747;28;36885;-78
2021/05/20 13:42:21;;;;;;;3.88;3.28;;;;;;;;;;5000530;28;39175;-77
2021/05/20 13:44:55;;;;;;;4.75;2.85;;;;;;;;;;5004277;28;40046;-79
2021/05/20 13:47:22;;;;;;;3.75;3.10;;;;;;;;;;4985070;28;37631;-78
2021/05/20 13:49:48;;;;;;;3.72;3.10;;;;;;;;;;4979664;28;35459;-78
2021/05/20 13:52:21;;;;;;;3.63;3.33;;;;;;;;;;5004692;28;36578;-78
2021/05/20 13:54:48;;;;;;;4.25;3.50;;;;;;;;;;4981570;28;37855;-78
2021/05/20 13:57:15;;;;;;;5.85;4.00;;;;;;;;;;4980360;28;37532;-78
2021/05/20 13:59:45;;;;;;;4.97;4.10;;;;;;;;;;4985381;28;37416;-77
2021/05/20 14:02:13;;;;;;;5.57;4.80;;;;;;;;;;4978337;28;38734;-78
2021/05/20 14:04:40;;;;;;;6.70;4.95;;;;;;;;;;4998614;28;40059;-78
2021/05/20 14:07:08;;;;;;;5.57;4.38;;;;;;;;;;4974825;28;39579;-78
2021/05/20 14:09:35;;;;;;;8.60;4.22;;;;;;;;;;4997187;28;36831;-78
2021/05/20 14:12:02;;;;;;;5.22;3.47;;;;;;;;;;5001916;28;38774;-77
2021/05/20 14:14:29;;;;;;;3.92;3.45;;;;;;;;;;5000855;28;38894;-78
2021/05/20 14:16:55;;;;;;;6.05;4.32;;;;;;;;;;4986097;28;38178;-78
2021/05/20 14:19:22;;;;;;;4.47;3.97;;;;;;;;;;4983474;28;35865;-78
2021/05/20 14:21:49;;;;;;;6.55;3.60;;;;;;;;;;4982451;28;37614;-78
2021/05/20 14:24:16;;;;;;;4.35;3.53;;;;;;;;;;4981411;28;37911;-77
2021/05/20 14:26:46;;;;;;;7.35;3.75;;;;;;;;;;4973937;28;38303;-78
2021/05/20 14:29:13;;;;;;;5.35;3.67;;;;;;;;;;5001979;28;37359;-77
2021/05/20 14:31:40;;;;;;;4.50;3.42;;;;;;;;;;5000021;28;39882;-78
2021/05/20 14:34:06;;;;;;;6.68;3.50;;;;;;;;;;4980320;28;41574;-78
2021/05/20 14:36:34;;;;;;;5.47;3.55;;;;;;;;;;4998375;28;38972;-78
2021/05/20 14:39:00;;;;;;;7.50;3.47;;;;;;;;;;4999787;28;37987;-78